HUAL Seoul — LADO6 — position and weather

sailwx.info

Track history (hours):
 
Tides and Currents Weather Stations Pressure Air Temp Water Temp Dewpoint Dewpoint Depression Visibility Wind Speed Wind Dir Waves Ship Positions

HUAL Seoul

Last reported at 2014-Oct-30 05:28 UTC. Time now 2014-Oct-31 07:54 UTC.
Position N 29°21' W 094°44'.

Type: Cargo ship. MMSI: 257496000.

Date/timePositionNaut miles runAvg speedWind from/ knotsBaromVisibWave heightAir tempDewpointWater temp
2014-Oct-30 05:28N 29°21' W 094°44'5 5.2
2014-Oct-30 04:33N 29°19' W 094°49'0 0.0
2014-Oct-30 03:27N 29°19' W 094°49'0 0.0
2014-Oct-30 02:03N 29°19' W 094°49'0 0.0
2014-Oct-30 01:24N 29°19' W 094°49'0 0.0
2014-Oct-30 00:24N 29°19' W 094°49'0 0.0
2014-Oct-29 23:21N 29°19' W 094°49'0 0.0
2014-Oct-29 22:30N 29°19' W 094°49'0 0.0
2014-Oct-29 21:33N 29°19' W 094°49'0 0.0
2014-Oct-29 20:27N 29°19' W 094°49'0 0.0
2014-Oct-29 19:18N 29°19' W 094°49'0 0.0
2014-Oct-29 18:27N 29°19' W 094°49'0 0.0
2014-Oct-29 17:30N 29°19' W 094°49'0 0.0
2014-Oct-29 16:27N 29°19' W 094°49'0 0.0
2014-Oct-29 15:03N 29°19' W 094°49'0 0.0
2014-Oct-29 14:30N 29°19' W 094°49'0 0.0
2014-Oct-29 13:30N 29°19' W 094°49'0 0.0
2014-Oct-29 12:30N 29°19' W 094°49'2 1.7
2014-Oct-29 11:34N 29°19' W 094°47'9 8.9
2014-Oct-29 10:33N 29°18' W 094°37'9 9.4
2014-Oct-29 09:33N 29°13' W 094°28'58218.5
2014-Oct-28 02:11N 19°37' W 095°56'1219.3
2014-Oct-28 01:34N 19°25' W 095°57'1515.1
2014-Oct-28 00:34N 19°11' W 096°04'4 4.0
2014-Oct-27 23:31N 19°13' W 096°08'0 0.0
2014-Oct-27 22:31N 19°13' W 096°08'0 0.0
2014-Oct-27 21:31N 19°13' W 096°08'0 0.0
2014-Oct-27 20:31N 19°13' W 096°08'0 0.0
2014-Oct-27 19:31N 19°13' W 096°08'0 0.0
2014-Oct-27 18:31N 19°13' W 096°08'0 0.0
2014-Oct-27 17:31N 19°13' W 096°08'0 0.0
2014-Oct-27 16:31N 19°13' W 096°08'0 0.0
2014-Oct-27 15:31N 19°13' W 096°08'0 0.0
2014-Oct-27 14:31N 19°13' W 096°08'0 0.0
2014-Oct-27 13:31N 19°13' W 096°08'0 0.0
2014-Oct-27 12:31N 19°13' W 096°08'0 0.0
2014-Oct-27 11:31N 19°13' W 096°08'0 0.0
2014-Oct-27 10:31N 19°13' W 096°08'0 0.0
2014-Oct-27 09:31N 19°13' W 096°08'0 0.0
2014-Oct-27 08:31N 19°13' W 096°08'0 0.0
2014-Oct-27 07:31N 19°13' W 096°08'0 0.0
2014-Oct-27 06:31N 19°13' W 096°08'0 0.0
2014-Oct-27 05:31N 19°13' W 096°08'0 0.0
2014-Oct-27 04:31N 19°13' W 096°08'0 0.0
2014-Oct-27 03:31N 19°13' W 096°08'0 0.0
2014-Oct-27 02:31N 19°13' W 096°08'0 0.0
2014-Oct-27 01:31N 19°13' W 096°08'0 0.0
2014-Oct-27 00:31N 19°13' W 096°08'0 0.0
2014-Oct-26 23:31N 19°13' W 096°08'0 0.0
2014-Oct-26 22:31N 19°13' W 096°08'0 0.0
2014-Oct-26 21:31N 19°13' W 096°08'0 0.0
2014-Oct-26 20:31N 19°13' W 096°08'0 0.0
2014-Oct-26 19:31N 19°13' W 096°08'0 0.4
2014-Oct-26 18:33N 19°12' W 096°08'8 7.7
2014-Oct-26 17:33N 19°12' W 095°60'  
2014-Oct-24 12:31N 19°30' W 095°39'8 6.8
2014-Oct-24 11:25N 19°24' W 095°44'8 1.2
2014-Oct-24 05:15N 19°28' W 095°37'1013.7
2014-Oct-24 04:33N 19°18' W 095°37'2 1.9
2014-Oct-24 03:31N 19°16' W 095°38'2 2.1
2014-Oct-24 02:28N 19°19' W 095°37'2 2.3
2014-Oct-24 01:25N 19°21' W 095°37'3 2.5
2014-Oct-24 00:17N 19°22' W 095°34'  
Track history (hours):
 
Tides and Currents Weather Stations Pressure Air Temp Water Temp Dewpoint Dewpoint Depression Visibility Wind Speed Wind Dir Waves Ship Positions

HUAL Seoul

Last reported at 2014-Oct-30 05:28 UTC. Time now 2014-Oct-31 07:54 UTC.
Position N 29°21' W 094°44'.

Type: Cargo ship. MMSI: 257496000.

Date/timePositionNaut miles runAvg speedWind from/ knotsBaromVisibWave heightAir tempDewpointWater temp
2014-Oct-30 05:28N 29°21' W 094°44'5 5.2
2014-Oct-30 04:33N 29°19' W 094°49'0 0.0
2014-Oct-30 03:27N 29°19' W 094°49'0 0.0
2014-Oct-30 02:03N 29°19' W 094°49'0 0.0
2014-Oct-30 01:24N 29°19' W 094°49'0 0.0
2014-Oct-30 00:24N 29°19' W 094°49'0 0.0
2014-Oct-29 23:21N 29°19' W 094°49'0 0.0
2014-Oct-29 22:30N 29°19' W 094°49'0 0.0
2014-Oct-29 21:33N 29°19' W 094°49'0 0.0
2014-Oct-29 20:27N 29°19' W 094°49'0 0.0
2014-Oct-29 19:18N 29°19' W 094°49'0 0.0
2014-Oct-29 18:27N 29°19' W 094°49'0 0.0
2014-Oct-29 17:30N 29°19' W 094°49'0 0.0
2014-Oct-29 16:27N 29°19' W 094°49'0 0.0
2014-Oct-29 15:03N 29°19' W 094°49'0 0.0
2014-Oct-29 14:30N 29°19' W 094°49'0 0.0
2014-Oct-29 13:30N 29°19' W 094°49'0 0.0
2014-Oct-29 12:30N 29°19' W 094°49'2 1.7
2014-Oct-29 11:34N 29°19' W 094°47'9 8.9
2014-Oct-29 10:33N 29°18' W 094°37'9 9.4
2014-Oct-29 09:33N 29°13' W 094°28'58218.5
2014-Oct-28 02:11N 19°37' W 095°56'1219.3
2014-Oct-28 01:34N 19°25' W 095°57'1515.1
2014-Oct-28 00:34N 19°11' W 096°04'4 4.0
2014-Oct-27 23:31N 19°13' W 096°08'0 0.0
2014-Oct-27 22:31N 19°13' W 096°08'0 0.0
2014-Oct-27 21:31N 19°13' W 096°08'0 0.0
2014-Oct-27 20:31N 19°13' W 096°08'0 0.0
2014-Oct-27 19:31N 19°13' W 096°08'0 0.0
2014-Oct-27 18:31N 19°13' W 096°08'0 0.0
2014-Oct-27 17:31N 19°13' W 096°08'0 0.0
2014-Oct-27 16:31N 19°13' W 096°08'0 0.0
2014-Oct-27 15:31N 19°13' W 096°08'0 0.0
2014-Oct-27 14:31N 19°13' W 096°08'0 0.0
2014-Oct-27 13:31N 19°13' W 096°08'0 0.0
2014-Oct-27 12:31N 19°13' W 096°08'0 0.0
2014-Oct-27 11:31N 19°13' W 096°08'0 0.0
2014-Oct-27 10:31N 19°13' W 096°08'0 0.0
2014-Oct-27 09:31N 19°13' W 096°08'0 0.0
2014-Oct-27 08:31N 19°13' W 096°08'0 0.0
2014-Oct-27 07:31N 19°13' W 096°08'0 0.0
2014-Oct-27 06:31N 19°13' W 096°08'0 0.0
2014-Oct-27 05:31N 19°13' W 096°08'0 0.0
2014-Oct-27 04:31N 19°13' W 096°08'0 0.0
2014-Oct-27 03:31N 19°13' W 096°08'0 0.0
2014-Oct-27 02:31N 19°13' W 096°08'0 0.0
2014-Oct-27 01:31N 19°13' W 096°08'0 0.0
2014-Oct-27 00:31N 19°13' W 096°08'0 0.0
2014-Oct-26 23:31N 19°13' W 096°08'0 0.0
2014-Oct-26 22:31N 19°13' W 096°08'0 0.0
2014-Oct-26 21:31N 19°13' W 096°08'0 0.0
2014-Oct-26 20:31N 19°13' W 096°08'0 0.0
2014-Oct-26 19:31N 19°13' W 096°08'0 0.4
2014-Oct-26 18:33N 19°12' W 096°08'8 7.7
2014-Oct-26 17:33N 19°12' W 095°60'  
2014-Oct-24 12:31N 19°30' W 095°39'8 6.8
2014-Oct-24 11:25N 19°24' W 095°44'8 1.2
2014-Oct-24 05:15N 19°28' W 095°37'1013.7
2014-Oct-24 04:33N 19°18' W 095°37'2 1.9
2014-Oct-24 03:31N 19°16' W 095°38'2 2.1
2014-Oct-24 02:28N 19°19' W 095°37'2 2.3
2014-Oct-24 01:25N 19°21' W 095°37'3 2.5
2014-Oct-24 00:17N 19°22' W 095°34'  

Dump ship's entire track history